sensor_id;sensor_type;location;lat;lon;timestamp;pressure;altitude;pressure_sealevel;temperature;humidity
10852;BME280;5479;52.046;6.314;2022-08-03T00:01:58;101382.63;;;20.08;100.00
10852;BME280;5479;52.046;6.314;2022-08-03T00:04:27;101379.63;;;20.02;100.00
10852;BME280;5479;52.046;6.314;2022-08-03T00:06:55;101378.34;;;19.96;100.00
10852;BME280;5479;52.046;6.314;2022-08-03T00:09:23;101375.50;;;19.88;100.00
10852;BME280;5479;52.046;6.314;2022-08-03T00:11:52;101372.38;;;19.83;100.00
10852;BME280;5479;52.046;6.314;2022-08-03T00:14:20;101366.44;;;19.79;100.00
10852;BME280;5479;52.046;6.314;2022-08-03T00:16:48;101376.31;;;19.79;100.00
10852;BME280;5479;52.046;6.314;2022-08-03T00:19:16;101372.59;;;19.70;100.00
10852;BME280;5479;52.046;6.314;2022-08-03T00:21:44;101366.66;;;19.67;100.00
10852;BME280;5479;52.046;6.314;2022-08-03T00:24:12;101371.56;;;19.62;100.00
10852;BME280;5479;52.046;6.314;2022-08-03T00:26:40;101374.41;;;19.60;100.00
10852;BME280;5479;52.046;6.314;2022-08-03T00:29:09;101367.75;;;19.55;100.00
10852;BME280;5479;52.046;6.314;2022-08-03T00:31:37;101373.97;;;19.55;100.00
10852;BME280;5479;52.046;6.314;2022-08-03T00:34:04;101375.81;;;19.55;100.00
10852;BME280;5479;52.046;6.314;2022-08-03T00:36:32;101374.09;;;19.54;100.00
10852;BME280;5479;52.046;6.314;2022-08-03T00:39:00;101369.97;;;19.50;100.00
10852;BME280;5479;52.046;6.314;2022-08-03T00:41:28;101377.31;;;19.48;100.00
10852;BME280;5479;52.046;6.314;2022-08-03T00:43:56;101382.97;;;19.45;100.00
10852;BME280;5479;52.046;6.314;2022-08-03T00:46:25;101381.25;;;19.44;100.00
10852;BME280;5479;52.046;6.314;2022-08-03T00:48:53;101383.94;;;19.44;100.00
10852;BME280;5479;52.046;6.314;2022-08-03T00:51:22;101378.69;;;19.42;100.00
10852;BME280;5479;52.046;6.314;2022-08-03T00:53:50;101379.81;;;19.40;100.00
10852;BME280;5479;52.046;6.314;2022-08-03T00:56:18;101371.75;;;19.40;100.00
10852;BME280;5479;52.046;6.314;2022-08-03T00:58:46;101368.47;;;19.36;100.00
10852;BME280;5479;52.046;6.314;2022-08-03T01:01:14;101370.50;;;19.23;100.00
10852;BME280;5479;52.046;6.314;2022-08-03T01:03:43;101365.53;;;19.18;100.00
10852;BME280;5479;52.046;6.314;2022-08-03T01:06:15;101374.84;;;19.14;100.00
10852;BME280;5479;52.046;6.314;2022-08-03T01:08:47;101372.88;;;19.16;100.00
10852;BME280;5479;52.046;6.314;2022-08-03T01:11:26;101371.44;;;19.12;100.00
10852;BME280;5479;52.046;6.314;2022-08-03T01:14:03;101368.59;;;19.14;100.00
10852;BME280;5479;52.046;6.314;2022-08-03T01:16:37;101376.91;;;19.11;100.00
10852;BME280;5479;52.046;6.314;2022-08-03T01:19:22;101369.97;;;19.08;100.00
10852;BME280;5479;52.046;6.314;2022-08-03T01:22:06;101365.72;;;19.06;100.00
10852;BME280;5479;52.046;6.314;2022-08-03T01:24:44;101361.06;;;19.08;100.00
10852;BME280;5479;52.046;6.314;2022-08-03T01:27:20;101366.00;;;19.03;100.00
10852;BME280;5479;52.046;6.314;2022-08-03T01:29:56;101356.63;;;18.97;100.00
10852;BME280;5479;52.046;6.314;2022-08-03T01:32:32;101357.94;;;18.82;100.00
10852;BME280;5479;52.046;6.314;2022-08-03T01:35:04;101360.53;;;18.73;100.00
10852;BME280;5479;52.046;6.314;2022-08-03T01:37:37;101361.28;;;18.75;100.00
10852;BME280;5479;52.046;6.314;2022-08-03T01:40:07;101355.06;;;18.74;100.00
10852;BME280;5479;52.046;6.314;2022-08-03T01:42:39;101345.03;;;18.76;100.00
10852;BME280;5479;52.046;6.314;2022-08-03T01:45:11;101355.38;;;18.81;100.00
10852;BME280;5479;52.046;6.314;2022-08-03T01:47:41;101348.94;;;18.83;100.00
10852;BME280;5479;52.046;6.314;2022-08-03T01:50:12;101352.56;;;18.82;100.00
10852;BME280;5479;52.046;6.314;2022-08-03T01:52:41;101348.31;;;18.80;100.00
10852;BME280;5479;52.046;6.314;2022-08-03T01:55:12;101348.31;;;18.80;100.00
10852;BME280;5479;52.046;6.314;2022-08-03T01:57:42;101342.09;;;18.79;100.00
10852;BME280;5479;52.046;6.314;2022-08-03T02:00:13;101350.28;;;18.78;100.00
10852;BME280;5479;52.046;6.314;2022-08-03T02:02:42;101344.31;;;18.74;100.00
10852;BME280;5479;52.046;6.314;2022-08-03T02:05:11;101351.66;;;18.72;100.00
10852;BME280;5479;52.046;6.314;2022-08-03T02:07:42;101349.09;;;18.71;100.00
10852;BME280;5479;52.046;6.314;2022-08-03T02:10:13;101345.09;;;18.65;100.00
10852;BME280;5479;52.046;6.314;2022-08-03T02:12:44;101348.03;;;18.62;100.00
10852;BME280;5479;52.046;6.314;2022-08-03T02:15:15;101341.69;;;18.63;100.00
10852;BME280;5479;52.046;6.314;2022-08-03T02:17:46;101348.63;;;18.65;100.00
10852;BME280;5479;52.046;6.314;2022-08-03T02:20:15;101342.56;;;18.63;100.00
10852;BME280;5479;52.046;6.314;2022-08-03T02:22:45;101341.69;;;18.63;100.00
10852;BME280;5479;52.046;6.314;2022-08-03T02:25:14;101340.97;;;18.61;100.00
10852;BME280;5479;52.046;6.314;2022-08-03T02:27:48;101345.63;;;18.59;100.00
10852;BME280;5479;52.046;6.314;2022-08-03T02:30:19;101335.47;;;18.62;100.00
10852;BME280;5479;52.046;6.314;2022-08-03T02:32:53;101343.66;;;18.61;100.00
10852;BME280;5479;52.046;6.314;2022-08-03T02:35:23;101347.31;;;18.60;100.00
10852;BME280;5479;52.046;6.314;2022-08-03T02:38:03;101347.31;;;18.60;100.00
10852;BME280;5479;52.046;6.314;2022-08-03T02:40:35;101348.16;;;18.60;100.00
10852;BME280;5479;52.046;6.314;2022-08-03T02:43:06;101342.19;;;18.57;100.00
10852;BME280;5479;52.046;6.314;2022-08-03T02:45:41;101343.56;;;18.51;100.00
10852;BME280;5479;52.046;6.314;2022-08-03T02:48:10;101333.34;;;18.45;100.00
10852;BME280;5479;52.046;6.314;2022-08-03T02:50:39;101333.72;;;18.41;100.00
10852;BME280;5479;52.046;6.314;2022-08-03T02:53:10;101333.84;;;18.39;100.00
10852;BME280;5479;52.046;6.314;2022-08-03T02:55:39;101332.28;;;18.37;100.00
10852;BME280;5479;52.046;6.314;2022-08-03T02:58:10;101327.03;;;18.35;100.00
10852;BME280;5479;52.046;6.314;2022-08-03T03:00:43;101326.31;;;18.33;100.00
10852;BME280;5479;52.046;6.314;2022-08-03T03:03:12;101319.38;;;18.31;100.00
10852;BME280;5479;52.046;6.314;2022-08-03T03:05:41;101319.50;;;18.29;100.00
10852;BME280;5479;52.046;6.314;2022-08-03T03:08:11;101325.84;;;18.28;100.00
10852;BME280;5479;52.046;6.314;2022-08-03T03:10:40;101322.56;;;18.25;100.00
10852;BME280;5479;52.046;6.314;2022-08-03T03:13:09;101323.81;;;18.21;100.00
10852;BME280;5479;52.046;6.314;2022-08-03T03:15:38;101312.47;;;18.17;100.00
10852;BME280;5479;52.046;6.314;2022-08-03T03:18:10;101322.34;;;18.17;100.00
10852;BME280;5479;52.046;6.314;2022-08-03T03:20:39;101322.34;;;18.17;100.00
10852;BME280;5479;52.046;6.314;2022-08-03T03:23:08;101331.00;;;18.09;100.00
10852;BME280;5479;52.046;6.314;2022-08-03T03:25:37;101330.53;;;18.04;100.00
10852;BME280;5479;52.046;6.314;2022-08-03T03:28:05;101327.75;;;18.05;100.00
10852;BME280;5479;52.046;6.314;2022-08-03T03:30:33;101333.13;;;18.05;100.00
10852;BME280;5479;52.046;6.314;2022-08-03T03:33:01;101324.31;;;18.03;100.00
10852;BME280;5479;52.046;6.314;2022-08-03T03:35:31;101328.97;;;18.01;100.00
10852;BME280;5479;52.046;6.314;2022-08-03T03:37:59;101328.00;;;18.02;100.00
10852;BME280;5479;52.046;6.314;2022-08-03T03:40:27;101323.84;;;17.98;100.00
10852;BME280;5479;52.046;6.314;2022-08-03T03:42:55;101320.47;;;17.96;100.00
10852;BME280;5479;52.046;6.314;2022-08-03T03:45:23;101323.53;;;17.92;100.00
10852;BME280;5479;52.046;6.314;2022-08-03T03:47:51;101319.97;;;17.91;100.00
10852;BME280;5479;52.046;6.314;2022-08-03T03:50:21;101319.25;;;17.89;100.00
10852;BME280;5479;52.046;6.314;2022-08-03T03:52:50;101323.78;;;17.89;100.00
10852;BME280;5479;52.046;6.314;2022-08-03T03:55:18;101315.84;;;17.87;100.00
10852;BME280;5479;52.046;6.314;2022-08-03T03:57:46;101321.19;;;17.87;100.00
10852;BME280;5479;52.046;6.314;2022-08-03T04:00:16;101324.88;;;17.86;100.00
10852;BME280;5479;52.046;6.314;2022-08-03T04:02:44;101325.13;;;17.83;100.00
10852;BME280;5479;52.046;6.314;2022-08-03T04:05:13;101319.75;;;17.83;100.00
10852;BME280;5479;52.046;6.314;2022-08-03T04:08:03;101327.66;;;17.85;100.00
10852;BME280;5479;52.046;6.314;2022-08-03T04:10:55;101328.50;;;17.85;100.00
10852;BME280;5479;52.046;6.314;2022-08-03T04:13:31;101326.56;;;17.87;100.00
10852;BME280;5479;52.046;6.314;2022-08-03T04:16:00;101335.34;;;17.89;100.00
10852;BME280;5479;52.046;6.314;2022-08-03T04:18:32;101327.16;;;17.91;100.00
10852;BME280;5479;52.046;6.314;2022-08-03T04:21:03;101335.06;;;17.92;100.00
10852;BME280;5479;52.046;6.314;2022-08-03T04:23:36;101333.00;;;17.96;100.00
10852;BME280;5479;52.046;6.314;2022-08-03T04:26:08;101339.94;;;17.98;100.00
10852;BME280;5479;52.046;6.314;2022-08-03T04:28:38;101332.13;;;18.06;100.00
10852;BME280;5479;52.046;6.314;2022-08-03T04:31:08;101332.59;;;18.00;100.00
10852;BME280;5479;52.046;6.314;2022-08-03T04:33:37;101332.38;;;18.03;100.00
10852;BME280;5479;52.046;6.314;2022-08-03T04:36:08;101328.56;;;18.06;100.00
10852;BME280;5479;52.046;6.314;2022-08-03T04:38:39;101332.22;;;18.16;100.00
10852;BME280;5479;52.046;6.314;2022-08-03T04:41:09;101331.13;;;18.19;100.00
10852;BME280;5479;52.046;6.314;2022-08-03T04:43:38;101326.94;;;18.26;100.00
10852;BME280;5479;52.046;6.314;2022-08-03T04:46:07;101324.41;;;18.24;100.00
10852;BME280;5479;52.046;6.314;2022-08-03T04:48:36;101324.41;;;18.24;100.00
10852;BME280;5479;52.046;6.314;2022-08-03T04:51:05;101330.94;;;18.31;100.00
10852;BME280;5479;52.046;6.314;2022-08-03T04:53:33;101333.00;;;18.39;100.00
10852;BME280;5479;52.046;6.314;2022-08-03T04:56:06;101333.59;;;18.53;100.00
10852;BME280;5479;52.046;6.314;2022-08-03T04:58:34;101333.84;;;18.71;100.00
10852;BME280;5479;52.046;6.314;2022-08-03T05:01:02;101341.78;;;18.93;100.00
10852;BME280;5479;52.046;6.314;2022-08-03T05:03:29;101333.13;;;19.10;100.00
10852;BME280;5479;52.046;6.314;2022-08-03T05:05:58;101324.88;;;19.23;100.00
10852;BME280;5479;52.046;6.314;2022-08-03T05:08:26;101335.16;;;19.39;100.00
10852;BME280;5479;52.046;6.314;2022-08-03T05:10:54;101336.88;;;19.49;100.00
10852;BME280;5479;52.046;6.314;2022-08-03T05:13:23;101330.56;;;19.60;100.00
10852;BME280;5479;52.046;6.314;2022-08-03T05:15:51;101337.00;;;19.78;100.00
10852;BME280;5479;52.046;6.314;2022-08-03T05:18:19;101342.41;;;19.97;100.00
10852;BME280;5479;52.046;6.314;2022-08-03T05:20:47;101339.72;;;19.97;100.00
10852;BME280;5479;52.046;6.314;2022-08-03T05:23:14;101340.75;;;20.06;100.00
10852;BME280;5479;52.046;6.314;2022-08-03T05:25:42;101348.13;;;20.13;100.00
10852;BME280;5479;52.046;6.314;2022-08-03T05:28:10;101345.00;;;20.18;100.00
10852;BME280;5479;52.046;6.314;2022-08-03T05:30:39;101348.97;;;20.23;100.00
10852;BME280;5479;52.046;6.314;2022-08-03T05:33:07;101347.47;;;20.30;100.00
10852;BME280;5479;52.046;6.314;2022-08-03T05:35:36;101344.91;;;20.38;100.00
10852;BME280;5479;52.046;6.314;2022-08-03T05:38:05;101350.75;;;20.43;100.00
10852;BME280;5479;52.046;6.314;2022-08-03T05:40:33;101353.44;;;20.43;100.00
10852;BME280;5479;52.046;6.314;2022-08-03T05:43:01;101359.25;;;20.49;100.00
10852;BME280;5479;52.046;6.314;2022-08-03T05:45:29;101358.53;;;20.56;100.00
10852;BME280;5479;52.046;6.314;2022-08-03T05:47:58;101357.38;;;20.59;100.00
10852;BME280;5479;52.046;6.314;2022-08-03T05:50:26;101356.25;;;20.71;100.00
10852;BME280;5479;52.046;6.314;2022-08-03T05:52:54;101360.78;;;20.80;100.00
10852;BME280;5479;52.046;6.314;2022-08-03T05:55:23;101359.53;;;20.84;100.00
10852;BME280;5479;52.046;6.314;2022-08-03T05:57:52;101358.06;;;20.89;100.00
10852;BME280;5479;52.046;6.314;2022-08-03T06:00:20;101359.47;;;21.03;100.00
10852;BME280;5479;52.046;6.314;2022-08-03T06:02:48;101361.19;;;21.04;100.00
10852;BME280;5479;52.046;6.314;2022-08-03T06:05:17;101364.31;;;21.19;100.00
10852;BME280;5479;52.046;6.314;2022-08-03T06:07:45;101365.13;;;21.29;100.00
10852;BME280;5479;52.046;6.314;2022-08-03T06:10:13;101365.09;;;21.38;100.00
10852;BME280;5479;52.046;6.314;2022-08-03T06:12:41;101362.66;;;21.45;100.00
10852;BME280;5479;52.046;6.314;2022-08-03T06:15:10;101367.31;;;21.52;100.00
10852;BME280;5479;52.046;6.314;2022-08-03T06:17:45;101374.00;;;21.76;100.00
10852;BME280;5479;52.046;6.314;2022-08-03T06:20:17;101364.34;;;21.83;100.00
10852;BME280;5479;52.046;6.314;2022-08-03T06:22:45;101360.88;;;22.00;100.00
10852;BME280;5479;52.046;6.314;2022-08-03T06:25:13;101366.16;;;22.19;100.00
10852;BME280;5479;52.046;6.314;2022-08-03T06:27:42;101366.72;;;22.40;100.00
10852;BME280;5479;52.046;6.314;2022-08-03T06:30:10;101360.53;;;22.48;100.00
10852;BME280;5479;52.046;6.314;2022-08-03T06:32:39;101364.66;;;22.69;100.00
10852;BME280;5479;52.046;6.314;2022-08-03T06:35:08;101375.28;;;22.89;100.00
10852;BME280;5479;52.046;6.314;2022-08-03T06:37:44;101364.72;;;22.95;100.00
10852;BME280;5479;52.046;6.314;2022-08-03T06:40:14;101375.06;;;23.00;100.00
10852;BME280;5479;52.046;6.314;2022-08-03T06:42:42;101381.13;;;23.19;100.00
10852;BME280;5479;52.046;6.314;2022-08-03T06:45:11;101382.66;;;23.48;100.00
10852;BME280;5479;52.046;6.314;2022-08-03T06:47:39;101376.00;;;24.01;100.00
10852;BME280;5479;52.046;6.314;2022-08-03T06:50:08;101376.19;;;24.74;100.00
10852;BME280;5479;52.046;6.314;2022-08-03T06:52:36;101364.97;;;26.81;96.44
10852;BME280;5479;52.046;6.314;2022-08-03T06:55:06;101360.03;;;28.81;79.70
10852;BME280;5479;52.046;6.314;2022-08-03T06:57:34;101366.38;;;30.12;68.79
10852;BME280;5479;52.046;6.314;2022-08-03T07:00:03;101359.03;;;30.26;62.58
10852;BME280;5479;52.046;6.314;2022-08-03T07:02:31;101359.44;;;31.03;60.30
10852;BME280;5479;52.046;6.314;2022-08-03T07:04:58;101361.09;;;31.56;56.54
10852;BME280;5479;52.046;6.314;2022-08-03T07:07:26;101361.91;;;31.70;54.45
10852;BME280;5479;52.046;6.314;2022-08-03T07:09:54;101353.25;;;32.93;49.93
10852;BME280;5479;52.046;6.314;2022-08-03T07:12:24;101358.50;;;32.95;47.42
10852;BME280;5479;52.046;6.314;2022-08-03T07:14:52;101359.59;;;31.60;51.42
10852;BME280;5479;52.046;6.314;2022-08-03T07:17:20;101364.03;;;31.42;53.05
10852;BME280;5479;52.046;6.314;2022-08-03T07:19:48;101353.47;;;32.22;50.67
10852;BME280;5479;52.046;6.314;2022-08-03T07:22:17;101364.97;;;33.00;46.92
10852;BME280;5479;52.046;6.314;2022-08-03T07:24:44;101358.44;;;33.69;45.42
10852;BME280;5479;52.046;6.314;2022-08-03T07:27:14;101356.38;;;33.82;43.99
10852;BME280;5479;52.046;6.314;2022-08-03T07:29:43;101359.25;;;34.24;43.70
10852;BME280;5479;52.046;6.314;2022-08-03T07:32:11;101355.28;;;34.49;42.03
10852;BME280;5479;52.046;6.314;2022-08-03T07:34:39;101358.16;;;34.54;41.87
10852;BME280;5479;52.046;6.314;2022-08-03T07:37:07;101355.38;;;34.43;42.11
10852;BME280;5479;52.046;6.314;2022-08-03T07:39:35;101358.28;;;34.18;42.70
10852;BME280;5479;52.046;6.314;2022-08-03T07:42:03;101358.63;;;34.51;42.21
10852;BME280;5479;52.046;6.314;2022-08-03T07:44:31;101358.44;;;34.65;40.58
10852;BME280;5479;52.046;6.314;2022-08-03T07:47:00;101362.47;;;35.03;39.89
10852;BME280;5479;52.046;6.314;2022-08-03T07:49:28;101359.22;;;34.95;40.20
10852;BME280;5479;52.046;6.314;2022-08-03T07:51:56;101363.91;;;34.23;40.34
10852;BME280;5479;52.046;6.314;2022-08-03T07:54:42;101366.25;;;32.73;43.26
10852;BME280;5479;52.046;6.314;2022-08-03T07:57:10;101360.94;;;32.78;44.00
10852;BME280;5479;52.046;6.314;2022-08-03T07:59:37;101367.88;;;32.49;44.22
10852;BME280;5479;52.046;6.314;2022-08-03T08:02:07;101366.69;;;32.70;45.25
10852;BME280;5479;52.046;6.314;2022-08-03T08:04:35;101368.16;;;32.97;44.42
10852;BME280;5479;52.046;6.314;2022-08-03T08:07:02;101366.84;;;34.10;41.66
10852;BME280;5479;52.046;6.314;2022-08-03T08:09:30;101356.56;;;34.77;39.80
10852;BME280;5479;52.046;6.314;2022-08-03T08:11:58;101363.81;;;34.60;38.51
10852;BME280;5479;52.046;6.314;2022-08-03T08:14:26;101367.25;;;34.25;39.75
10852;BME280;5479;52.046;6.314;2022-08-03T08:16:54;101368.81;;;34.51;39.55
10852;BME280;5479;52.046;6.314;2022-08-03T08:19:23;101372.91;;;34.60;38.72
10852;BME280;5479;52.046;6.314;2022-08-03T08:21:51;101363.00;;;35.12;37.28
10852;BME280;5479;52.046;6.314;2022-08-03T08:24:19;101369.81;;;34.38;38.45
10852;BME280;5479;52.046;6.314;2022-08-03T08:26:47;101369.25;;;33.82;39.16
10852;BME280;5479;52.046;6.314;2022-08-03T08:29:15;101378.38;;;33.39;40.73
10852;BME280;5479;52.046;6.314;2022-08-03T08:31:43;101380.66;;;33.67;40.21
10852;BME280;5479;52.046;6.314;2022-08-03T08:34:11;101375.63;;;33.39;40.97
10852;BME280;5479;52.046;6.314;2022-08-03T08:36:41;101372.31;;;33.74;40.31
10852;BME280;5479;52.046;6.314;2022-08-03T08:39:08;101376.63;;;32.71;42.17
10852;BME280;5479;52.046;6.314;2022-08-03T08:41:36;101382.41;;;32.88;42.83
10852;BME280;5479;52.046;6.314;2022-08-03T08:44:04;101376.41;;;33.47;42.18
10852;BME280;5479;52.046;6.314;2022-08-03T08:46:33;101375.97;;;34.04;40.49
10852;BME280;5479;52.046;6.314;2022-08-03T08:49:02;101367.63;;;33.38;40.64
10852;BME280;5479;52.046;6.314;2022-08-03T08:51:30;101366.47;;;32.71;43.39
10852;BME280;5479;52.046;6.314;2022-08-03T08:54:02;101377.75;;;33.62;41.69
10852;BME280;5479;52.046;6.314;2022-08-03T08:56:33;101375.97;;;34.04;40.37
10852;BME280;5479;52.046;6.314;2022-08-03T08:59:02;101364.09;;;34.40;39.45
10852;BME280;5479;52.046;6.314;2022-08-03T09:01:30;101372.22;;;34.46;38.55
10852;BME280;5479;52.046;6.314;2022-08-03T09:03:58;101375.56;;;35.31;37.33
10852;BME280;5479;52.046;6.314;2022-08-03T09:06:26;101365.94;;;35.92;36.32
10852;BME280;5479;52.046;6.314;2022-08-03T09:08:54;101377.25;;;35.67;36.20
10852;BME280;5479;52.046;6.314;2022-08-03T09:11:23;101370.38;;;35.93;35.02
10852;BME280;5479;52.046;6.314;2022-08-03T09:13:51;101372.47;;;36.42;34.02
10852;BME280;5479;52.046;6.314;2022-08-03T09:16:21;101366.34;;;36.68;32.91
10852;BME280;5479;52.046;6.314;2022-08-03T09:18:50;101365.94;;;36.03;34.57
10852;BME280;5479;52.046;6.314;2022-08-03T09:21:20;101366.69;;;35.76;35.36
10852;BME280;5479;52.046;6.314;2022-08-03T09:23:50;101370.13;;;35.83;35.75
10852;BME280;5479;52.046;6.314;2022-08-03T09:26:24;101360.66;;;36.02;34.80
10852;BME280;5479;52.046;6.314;2022-08-03T09:28:55;101371.47;;;36.20;34.01
10852;BME280;5479;52.046;6.314;2022-08-03T09:31:31;101371.88;;;36.12;34.03
10852;BME280;5479;52.046;6.314;2022-08-03T09:34:01;101369.63;;;35.97;34.03
10852;BME280;5479;52.046;6.314;2022-08-03T09:36:38;101362.50;;;36.24;33.49
10852;BME280;5479;52.046;6.314;2022-08-03T09:39:08;101362.34;;;36.03;33.95
10852;BME280;5479;52.046;6.314;2022-08-03T09:41:40;101357.91;;;36.58;33.67
10852;BME280;5479;52.046;6.314;2022-08-03T09:44:08;101365.41;;;36.46;32.86
10852;BME280;5479;52.046;6.314;2022-08-03T09:46:50;101364.38;;;36.36;33.50
10852;BME280;5479;52.046;6.314;2022-08-03T09:49:18;101361.34;;;36.37;33.38
10852;BME280;5479;52.046;6.314;2022-08-03T09:51:47;101360.75;;;36.35;33.19
10852;BME280;5479;52.046;6.314;2022-08-03T09:54:25;101355.44;;;37.07;32.60
10852;BME280;5479;52.046;6.314;2022-08-03T09:56:55;101358.06;;;37.13;32.28
10852;BME280;5479;52.046;6.314;2022-08-03T09:59:25;101363.38;;;36.86;32.23
10852;BME280;5479;52.046;6.314;2022-08-03T10:01:53;101350.47;;;36.59;32.92
10852;BME280;5479;52.046;6.314;2022-08-03T10:04:22;101354.72;;;36.50;33.32
10852;BME280;5479;52.046;6.314;2022-08-03T10:07:04;101352.59;;;36.40;33.09
10852;BME280;5479;52.046;6.314;2022-08-03T10:09:32;101353.25;;;36.47;32.94
10852;BME280;5479;52.046;6.314;2022-08-03T10:12:11;101353.84;;;36.77;32.80
10852;BME280;5479;52.046;6.314;2022-08-03T10:14:40;101353.63;;;36.51;32.68
10852;BME280;5479;52.046;6.314;2022-08-03T10:17:10;101355.72;;;37.05;32.22
10852;BME280;5479;52.046;6.314;2022-08-03T10:19:38;101349.84;;;37.02;32.37
10852;BME280;5479;52.046;6.314;2022-08-03T10:22:11;101353.84;;;36.77;33.27
10852;BME280;5479;52.046;6.314;2022-08-03T10:24:47;101346.66;;;37.10;31.78
10852;BME280;5479;52.046;6.314;2022-08-03T10:27:18;101346.19;;;37.89;31.67
10852;BME280;5479;52.046;6.314;2022-08-03T10:29:51;101352.94;;;38.47;29.69
10852;BME280;5479;52.046;6.314;2022-08-03T10:32:23;101345.59;;;38.09;30.08
10852;BME280;5479;52.046;6.314;2022-08-03T10:34:57;101334.41;;;37.77;30.23
10852;BME280;5479;52.046;6.314;2022-08-03T10:37:28;101342.66;;;38.21;29.12
10852;BME280;5479;52.046;6.314;2022-08-03T10:39:57;101338.59;;;38.01;29.21
10852;BME280;5479;52.046;6.314;2022-08-03T10:42:29;101334.59;;;37.92;29.41
10852;BME280;5479;52.046;6.314;2022-08-03T10:45:03;101338.25;;;37.38;30.47
10852;BME280;5479;52.046;6.314;2022-08-03T10:47:32;101337.84;;;38.33;28.97
10852;BME280;5479;52.046;6.314;2022-08-03T10:50:01;101340.97;;;39.00;28.48
10852;BME280;5479;52.046;6.314;2022-08-03T10:52:29;101332.59;;;39.27;27.24
10852;BME280;5479;52.046;6.314;2022-08-03T10:54:56;101320.72;;;39.88;26.61
10852;BME280;5479;52.046;6.314;2022-08-03T10:57:48;101315.56;;;39.60;27.12
10852;BME280;5479;52.046;6.314;2022-08-03T11:00:18;101323.81;;;39.40;27.41
10852;BME280;5479;52.046;6.314;2022-08-03T11:03:06;101319.28;;;38.07;28.91
10852;BME280;5479;52.046;6.314;2022-08-03T11:05:37;101321.41;;;38.26;28.45
10852;BME280;5479;52.046;6.314;2022-08-03T11:08:29;101317.25;;;38.77;28.16
10852;BME280;5479;52.046;6.314;2022-08-03T11:10:59;101311.78;;;39.19;27.58
10852;BME280;5479;52.046;6.314;2022-08-03T11:13:29;101310.72;;;38.61;27.65
10852;BME280;5479;52.046;6.314;2022-08-03T11:16:01;101302.75;;;39.44;27.33
10852;BME280;5479;52.046;6.314;2022-08-03T11:18:30;101299.59;;;39.72;26.95
10852;BME280;5479;52.046;6.314;2022-08-03T11:20:59;101296.03;;;38.93;27.33
10852;BME280;5479;52.046;6.314;2022-08-03T11:23:42;101291.25;;;38.78;27.07
10852;BME280;5479;52.046;6.314;2022-08-03T11:26:14;101301.38;;;37.87;28.27
10852;BME280;5479;52.046;6.314;2022-08-03T11:28:45;101294.59;;;37.78;28.42
10852;BME280;5479;52.046;6.314;2022-08-03T11:34:24;101294.28;;;35.17;31.94
10852;BME280;5479;52.046;6.314;2022-08-03T11:37:21;101294.63;;;35.32;31.53
10852;BME280;5479;52.046;6.314;2022-08-03T11:39:51;101289.84;;;35.39;31.74
10852;BME280;5479;52.046;6.314;2022-08-03T11:42:41;101290.22;;;35.31;32.83
10852;BME280;5479;52.046;6.314;2022-08-03T11:45:14;101286.03;;;35.29;32.59
10852;BME280;5479;52.046;6.314;2022-08-03T11:47:41;101280.19;;;35.77;32.22
10852;BME280;5479;52.046;6.314;2022-08-03T11:50:09;101291.53;;;35.80;32.10
10852;BME280;5479;52.046;6.314;2022-08-03T11:52:39;101302.44;;;35.87;31.35
10852;BME280;5479;52.046;6.314;2022-08-03T11:55:13;101294.88;;;36.22;30.97
10852;BME280;5479;52.046;6.314;2022-08-03T11:57:41;101295.09;;;35.52;32.10
10852;BME280;5479;52.046;6.314;2022-08-03T12:00:30;101294.25;;;35.40;32.15
10852;BME280;5479;52.046;6.314;2022-08-03T12:03:02;101294.84;;;35.65;31.71
10852;BME280;5479;52.046;6.314;2022-08-03T12:05:41;101307.06;;;34.77;33.24
10852;BME280;5479;52.046;6.314;2022-08-03T12:08:12;101301.09;;;35.26;32.92
10852;BME280;5479;52.046;6.314;2022-08-03T12:10:47;101299.59;;;35.82;31.53
10852;BME280;5479;52.046;6.314;2022-08-03T12:13:16;101298.38;;;35.78;31.72
10852;BME280;5479;52.046;6.314;2022-08-03T12:15:51;101297.97;;;35.97;31.97
10852;BME280;5479;52.046;6.314;2022-08-03T12:18:20;101294.19;;;36.15;31.53
10852;BME280;5479;52.046;6.314;2022-08-03T12:20:50;101290.81;;;35.22;33.48
10852;BME280;5479;52.046;6.314;2022-08-03T12:23:18;101292.13;;;35.19;33.01
10852;BME280;5479;52.046;6.314;2022-08-03T12:25:46;101290.31;;;35.36;33.28
10852;BME280;5479;52.046;6.314;2022-08-03T12:28:16;101290.44;;;34.95;33.49
10852;BME280;5479;52.046;6.314;2022-08-03T12:30:47;101287.34;;;35.14;33.24
10852;BME280;5479;52.046;6.314;2022-08-03T12:33:22;101286.34;;;34.74;34.30
10852;BME280;5479;52.046;6.314;2022-08-03T12:36:02;101294.88;;;34.96;34.35
10852;BME280;5479;52.046;6.314;2022-08-03T12:38:32;101294.38;;;34.99;34.13
10852;BME280;5479;52.046;6.314;2022-08-03T12:41:02;101297.16;;;35.34;33.94
10852;BME280;5479;52.046;6.314;2022-08-03T12:43:31;101281.66;;;35.67;33.13
10852;BME280;5479;52.046;6.314;2022-08-03T12:46:12;101308.22;;;34.28;33.41
10852;BME280;5479;52.046;6.314;2022-08-03T12:49:02;101298.28;;;33.97;34.83
10852;BME280;5479;52.046;6.314;2022-08-03T12:51:32;101298.84;;;33.69;35.55
10852;BME280;5479;52.046;6.314;2022-08-03T12:54:00;101297.22;;;33.44;36.94
10852;BME280;5479;52.046;6.314;2022-08-03T12:56:29;101303.53;;;33.26;36.48
10852;BME280;5479;52.046;6.314;2022-08-03T12:58:56;101294.47;;;33.80;35.93
10852;BME280;5479;52.046;6.314;2022-08-03T13:01:24;101298.00;;;33.87;35.79
10852;BME280;5479;52.046;6.314;2022-08-03T13:03:54;101298.91;;;33.81;34.74
10852;BME280;5479;52.046;6.314;2022-08-03T13:06:24;101302.75;;;33.62;34.72
10852;BME280;5479;52.046;6.314;2022-08-03T13:09:03;101301.50;;;33.58;34.56
10852;BME280;5479;52.046;6.314;2022-08-03T13:11:32;101288.31;;;33.66;34.32
10852;BME280;5479;52.046;6.314;2022-08-03T13:14:01;101297.59;;;33.29;35.53
10852;BME280;5479;52.046;6.314;2022-08-03T13:16:29;101296.88;;;33.15;35.50